Time,TemperatureF,DewpointF,PressureIn,WindDirection,WindDirectionDegrees,WindSpeedMPH,WindSpeedGustMPH,Humidity,HourlyPrecipIn,Conditions,Clouds,dailyrainin,SoftwareType,DateUTC
2013-03-30 00:00:00,43.1,36.4,30.15,WSW,243,0.0,0.0,77,0.00,CLR,,0.00,WeatherDisplay:10.37,2013-03-30 07:00:00,
2013-03-30 00:05:00,43.1,36.4,30.14,WSW,241,0.0,0.0,77,0.00,CLR,,0.00,WeatherDisplay:10.37,2013-03-30 07:05:00,
2013-03-30 00:10:00,42.8,36.1,30.15,WSW,243,0.0,0.0,77,0.00,CLR,,0.00,WeatherDisplay:10.37,2013-03-30 07:10:00,
2013-03-30 00:15:00,42.6,36.2,30.15,WSW,241,0.0,0.0,78,0.00,CLR,,0.00,WeatherDisplay:10.37,2013-03-30 07:15:00,
2013-03-30 00:20:00,42.6,36.2,30.15,WSW,241,0.0,0.0,78,0.00,CLR,,0.00,WeatherDisplay:10.37,2013-03-30 07:20:00,
2013-03-30 00:25:00,42.5,36.1,30.15,WSW,241,0.0,0.0,78,0.00,CLR,,0.00,WeatherDisplay:10.37,2013-03-30 07:25:00,
2013-03-30 00:30:00,42.5,36.1,30.15,WSW,241,0.0,0.0,78,0.00,CLR,,0.00,WeatherDisplay:10.37,2013-03-30 07:30:00,
2013-03-30 00:35:00,42.3,35.9,30.16,WSW,241,0.0,0.0,78,0.00,CLR,,0.00,WeatherDisplay:10.37,2013-03-30 07:35:00,
2013-03-30 00:40:00,42.2,35.8,30.16,WSW,243,0.0,0.0,78,0.00,CLR,,0.00,WeatherDisplay:10.37,2013-03-30 07:40:00,
2013-03-30 00:45:00,42.1,35.7,30.16,WSW,239,0.0,0.0,78,0.00,CLR,,0.00,WeatherDisplay:10.37,2013-03-30 07:45:00,
2013-03-30 00:50:00,41.8,35.8,30.16,WSW,239,0.0,0.0,79,0.00,CLR,,0.00,WeatherDisplay:10.37,2013-03-30 07:50:00,
2013-03-30 00:55:00,41.6,35.6,30.16,WSW,239,0.0,0.0,79,0.00,CLR,,0.00,WeatherDisplay:10.37,2013-03-30 07:55:00,
2013-03-30 01:00:00,41.6,35.6,30.16,WSW,239,0.0,0.0,79,0.00,CLR,,0.00,WeatherDisplay:10.37,2013-03-30 08:00:00,
2013-03-30 01:05:00,41.6,35.6,30.16,WSW,239,0.0,0.0,79,0.00,CLR,,0.00,WeatherDisplay:10.37,2013-03-30 08:05:00,
2013-03-30 01:10:00,41.5,35.5,30.16,WSW,239,0.0,0.0,79,0.00,CLR,,0.00,WeatherDisplay:10.37,2013-03-30 08:10:00,
2013-03-30 01:15:00,41.3,35.6,30.16,WSW,239,0.0,0.0,80,0.00,CLR,,0.00,WeatherDisplay:10.37,2013-03-30 08:15:00,
2013-03-30 01:20:00,41.2,35.5,30.16,WSW,239,0.0,0.0,80,0.00,CLR,,0.00,WeatherDisplay:10.37,2013-03-30 08:20:00,
2013-03-30 01:25:00,41.1,35.4,30.16,WSW,239,0.0,0.0,80,0.00,CLR,,0.00,WeatherDisplay:10.37,2013-03-30 08:25:00,
2013-03-30 01:30:00,40.9,35.5,30.17,WSW,239,0.0,0.0,81,0.00,CLR,,0.00,WeatherDisplay:10.37,2013-03-30 08:30:00,
2013-03-30 01:35:00,40.9,35.5,30.17,WSW,239,0.0,0.0,81,0.00,CLR,,0.00,WeatherDisplay:10.37,2013-03-30 08:35:00,
2013-03-30 01:40:00,40.8,35.1,30.17,WSW,237,0.0,0.0,80,0.00,CLR,,0.00,WeatherDisplay:10.37,2013-03-30 08:40:00,
2013-03-30 01:45:00,40.8,35.4,30.17,WSW,239,0.0,0.0,81,0.00,CLR,,0.00,WeatherDisplay:10.37,2013-03-30 08:45:00,
2013-03-30 01:50:00,40.6,35.2,30.17,SW,236,0.0,0.0,81,0.00,CLR,,0.00,WeatherDisplay:10.37,2013-03-30 08:50:00,
2013-03-30 01:55:00,40.5,35.1,30.17,SW,233,0.0,0.0,81,0.00,CLR,,0.00,WeatherDisplay:10.37,2013-03-30 08:55:00,
2013-03-30 02:00:00,40.5,35.1,30.17,SW,234,0.0,0.0,81,0.00,CLR,,0.00,WeatherDisplay:10.37,2013-03-30 09:00:00,
2013-03-30 02:07:00,40.5,35.1,30.16,SW,233,0.0,0.0,81,0.00,CLR,,0.00,WeatherDisplay:10.37,2013-03-30 09:07:00,
2013-03-30 02:12:00,40.6,35.2,30.16,SW,233,0.0,0.0,81,0.00,CLR,,0.00,WeatherDisplay:10.37,2013-03-30 09:12:00,
2013-03-30 02:17:00,40.6,35.2,30.16,SW,233,0.0,0.0,81,0.00,CLR,,0.00,WeatherDisplay:10.37,2013-03-30 09:17:00,
2013-03-30 02:22:00,40.6,35.2,30.16,SW,233,0.0,0.0,81,0.00,CLR,,0.00,WeatherDisplay:10.37,2013-03-30 09:22:00,
2013-03-30 02:27:00,40.5,35.1,30.16,SW,233,0.0,0.0,81,0.00,CLR,,0.00,WeatherDisplay:10.37,2013-03-30 09:27:00,
2013-03-30 02:33:00,40.3,35.2,30.16,SW,233,0.0,0.0,82,0.00,CLR,,0.00,WeatherDisplay:10.37,2013-03-30 09:33:00,
2013-03-30 02:34:00,40.3,35.2,30.16,SW,233,0.0,0.0,82,0.00,CLR,,0.00,WeatherDisplay:10.37,2013-03-30 09:34:00,
2013-03-30 02:39:00,40.1,35.0,30.16,SW,233,0.0,0.0,82,0.00,CLR,,0.00,WeatherDisplay:10.37,2013-03-30 09:39:00,
2013-03-30 02:44:00,39.9,34.9,30.16,SW,233,0.0,0.0,82,0.00,CLR,,0.00,WeatherDisplay:10.37,2013-03-30 09:44:00,
2013-03-30 02:49:00,39.9,35.2,30.16,SW,233,0.0,0.0,83,0.00,CLR,,0.00,WeatherDisplay:10.37,2013-03-30 09:49:00,
2013-03-30 02:54:00,39.9,35.2,30.16,SW,233,0.0,0.0,83,0.00,CLR,,0.00,WeatherDisplay:10.37,2013-03-30 09:54:00,
2013-03-30 03:00:00,39.6,34.9,30.16,SW,233,0.0,0.0,83,0.00,CLR,,0.00,WeatherDisplay:10.37,2013-03-30 10:00:00,
2013-03-30 03:05:00,39.3,34.6,30.17,SW,233,0.0,0.0,83,0.00,CLR,,0.00,WeatherDisplay:10.37,2013-03-30 10:05:00,
2013-03-30 03:10:00,39.2,34.8,30.17,SW,233,0.0,0.0,84,0.00,CLR,,0.00,WeatherDisplay:10.37,2013-03-30 10:10:00,
2013-03-30 03:15:00,39.2,35.1,30.17,SW,233,0.0,0.0,85,0.00,CLR,,0.00,WeatherDisplay:10.37,2013-03-30 10:15:00,
2013-03-30 03:20:00,39.2,34.8,30.17,SW,233,0.0,0.0,84,0.00,CLR,,0.00,WeatherDisplay:10.37,2013-03-30 10:20:00,
2013-03-30 03:25:00,39.2,34.8,30.17,SW,234,0.0,0.0,84,0.00,CLR,,0.00,WeatherDisplay:10.37,2013-03-30 10:25:00,
2013-03-30 03:30:00,38.9,34.5,30.17,SW,233,0.0,0.0,84,0.00,CLR,,0.00,WeatherDisplay:10.37,2013-03-30 10:30:00,
2013-03-30 03:35:00,38.8,34.4,30.17,SW,233,0.0,0.0,84,0.00,CLR,,0.00,WeatherDisplay:10.37,2013-03-30 10:35:00,
2013-03-30 03:40:00,38.5,34.1,30.17,SW,233,0.0,0.0,84,0.00,CLR,,0.00,WeatherDisplay:10.37,2013-03-30 10:40:00,
2013-03-30 03:45:00,38.5,34.4,30.17,SW,233,0.0,0.0,85,0.00,CLR,,0.00,WeatherDisplay:10.37,2013-03-30 10:45:00,
2013-03-30 03:50:00,38.3,34.2,30.17,SW,233,0.0,0.0,85,0.00,CLR,,0.00,WeatherDisplay:10.37,2013-03-30 10:50:00,
2013-03-30 03:55:00,38.2,34.1,30.17,SW,233,0.0,0.0,85,0.00,CLR,,0.00,WeatherDisplay:10.37,2013-03-30 10:55:00,
2013-03-30 04:00:00,38.2,34.1,30.17,SW,233,0.0,0.0,85,0.00,CLR,,0.00,WeatherDisplay:10.37,2013-03-30 11:00:00,
2013-03-30 04:05:00,38.2,34.1,30.17,SW,233,0.0,0.0,85,0.00,CLR,,0.00,WeatherDisplay:10.37,2013-03-30 11:05:00,
2013-03-30 04:10:00,38.2,34.4,30.17,SW,233,0.0,0.0,86,0.00,CLR,,0.00,WeatherDisplay:10.37,2013-03-30 11:10:00,
2013-03-30 04:15:00,38.0,34.2,30.17,SW,234,0.0,0.0,86,0.00,CLR,,0.00,WeatherDisplay:10.37,2013-03-30 11:15:00,
2013-03-30 04:20:00,38.0,34.2,30.17,SW,233,0.0,0.0,86,0.00,CLR,,0.00,WeatherDisplay:10.37,2013-03-30 11:20:00,
2013-03-30 04:25:00,37.9,34.1,30.17,SW,233,0.0,0.0,86,0.00,CLR,,0.00,WeatherDisplay:10.37,2013-03-30 11:25:00,
2013-03-30 04:30:00,37.9,34.1,30.17,SW,233,0.0,0.0,86,0.00,CLR,,0.00,WeatherDisplay:10.37,2013-03-30 11:30:00,
2013-03-30 04:35:00,37.9,34.1,30.17,SW,233,0.0,0.0,86,0.00,CLR,,0.00,WeatherDisplay:10.37,2013-03-30 11:35:00,
2013-03-30 04:40:00,38.0,34.2,30.17,SW,233,0.0,0.0,86,0.00,CLR,,0.00,WeatherDisplay:10.37,2013-03-30 11:40:00,
2013-03-30 04:45:00,38.0,34.2,30.17,SW,233,0.0,0.0,86,0.00,CLR,,0.00,WeatherDisplay:10.37,2013-03-30 11:45:00,
2013-03-30 04:50:00,38.0,34.2,30.17,SW,233,0.0,0.0,86,0.00,CLR,,0.00,WeatherDisplay:10.37,2013-03-30 11:50:00,
2013-03-30 04:55:00,37.8,34.0,30.17,SW,233,0.0,0.0,86,0.00,CLR,,0.00,WeatherDisplay:10.37,2013-03-30 11:55:00,
2013-03-30 05:00:00,37.6,33.8,30.17,SW,233,0.0,0.0,86,0.00,CLR,,0.00,WeatherDisplay:10.37,2013-03-30 12:00:00,
2013-03-30 05:05:00,37.2,33.4,30.17,SW,234,0.0,0.0,86,0.00,CLR,,0.00,WeatherDisplay:10.37,2013-03-30 12:05:00,
2013-03-30 05:10:00,37.0,33.2,30.17,SW,233,0.0,0.0,86,0.00,CLR,,0.00,WeatherDisplay:10.37,2013-03-30 12:10:00,
2013-03-30 05:15:00,36.9,33.1,30.16,SW,233,0.0,0.0,86,0.00,CLR,,0.00,WeatherDisplay:10.37,2013-03-30 12:15:00,
2013-03-30 05:20:00,36.8,33.3,30.16,SW,233,0.0,0.0,87,0.00,CLR,,0.00,WeatherDisplay:10.37,2013-03-30 12:20:00,
2013-03-30 05:25:00,36.8,33.3,30.16,SW,233,0.0,0.0,87,0.00,CLR,,0.00,WeatherDisplay:10.37,2013-03-30 12:25:00,
2013-03-30 05:30:00,36.9,33.4,30.16,SW,233,0.0,0.0,87,0.00,CLR,,0.00,WeatherDisplay:10.37,2013-03-30 12:30:00,
2013-03-30 05:35:00,36.8,33.3,30.16,SW,233,0.0,0.0,87,0.00,CLR,,0.00,WeatherDisplay:10.37,2013-03-30 12:35:00,
2013-03-30 05:40:00,36.8,33.3,30.16,SW,233,0.0,0.0,87,0.00,CLR,,0.00,WeatherDisplay:10.37,2013-03-30 12:40:00,
2013-03-30 05:45:00,36.8,33.3,30.16,SW,233,0.0,0.0,87,0.00,CLR,,0.00,WeatherDisplay:10.37,2013-03-30 12:45:00,
2013-03-30 05:50:00,36.8,33.3,30.16,SW,233,0.0,0.0,87,0.00,CLR,,0.00,WeatherDisplay:10.37,2013-03-30 12:50:00,
2013-03-30 05:55:00,36.6,33.1,30.17,SW,233,0.0,0.0,87,0.00,CLR,,0.00,WeatherDisplay:10.37,2013-03-30 12:55:00,
2013-03-30 06:00:00,36.5,33.0,30.17,SW,233,0.0,0.0,87,0.00,CLR,,0.00,WeatherDisplay:10.37,2013-03-30 13:00:00,
2013-03-30 06:05:00,36.3,32.8,30.17,SW,233,0.0,0.0,87,0.00,CLR,,0.00,WeatherDisplay:10.37,2013-03-30 13:05:00,
2013-03-30 06:10:00,35.9,32.4,30.18,SW,233,0.0,0.0,87,0.00,CLR,,0.00,WeatherDisplay:10.37,2013-03-30 13:10:00,
2013-03-30 06:15:00,35.6,32.1,30.17,SW,233,0.0,0.0,87,0.00,CLR,,0.00,WeatherDisplay:10.37,2013-03-30 13:15:00,
2013-03-30 06:20:00,35.6,32.1,30.18,SW,233,0.0,0.0,87,0.00,CLR,,0.00,WeatherDisplay:10.37,2013-03-30 13:20:00,
2013-03-30 06:25:00,35.8,32.6,30.17,SW,233,0.0,0.0,88,0.00,CLR,,0.00,WeatherDisplay:10.37,2013-03-30 13:25:00,
2013-03-30 06:30:00,35.6,32.4,30.18,SW,233,0.0,0.0,88,0.00,CLR,,0.00,WeatherDisplay:10.37,2013-03-30 13:30:00,
2013-03-30 06:35:00,35.3,32.1,30.19,SW,233,0.0,0.0,88,0.00,CLR,,0.00,WeatherDisplay:10.37,2013-03-30 13:35:00,
2013-03-30 06:40:00,35.2,32.0,30.19,SW,233,0.0,0.0,88,0.00,CLR,,0.00,WeatherDisplay:10.37,2013-03-30 13:40:00,
2013-03-30 06:45:00,35.2,32.0,30.19,SW,233,0.0,0.0,88,0.00,CLR,,0.00,WeatherDisplay:10.37,2013-03-30 13:45:00,
2013-03-30 06:51:00,34.6,31.4,30.19,SW,233,0.0,0.0,88,0.00,CLR,,0.00,WeatherDisplay:10.37,2013-03-30 13:51:00,
2013-03-30 06:56:00,34.3,31.1,30.19,SW,233,0.0,0.0,88,0.00,CLR,,0.00,WeatherDisplay:10.37,2013-03-30 13:56:00,
2013-03-30 07:01:00,34.1,30.9,30.19,SW,233,0.0,0.0,88,0.00,CLR,,0.00,WeatherDisplay:10.37,2013-03-30 14:01:00,
2013-03-30 07:08:00,34.4,31.5,30.21,SW,233,0.0,0.0,89,0.00,CLR,,0.00,WeatherDisplay:10.37,2013-03-30 14:08:00,
2013-03-30 07:13:00,34.9,32.0,30.21,SW,233,0.0,0.0,89,0.00,CLR,,0.00,WeatherDisplay:10.37,2013-03-30 14:13:00,
2013-03-30 07:18:00,35.0,32.1,30.21,SW,233,0.0,0.0,89,0.00,CLR,,0.00,WeatherDisplay:10.37,2013-03-30 14:18:00,
2013-03-30 07:24:00,35.2,32.3,30.21,SW,233,0.0,0.0,89,0.00,CLR,,0.00,WeatherDisplay:10.37,2013-03-30 14:24:00,
2013-03-30 07:29:00,35.6,32.7,30.20,SW,233,0.0,0.0,89,0.00,CLR,,0.00,WeatherDisplay:10.37,2013-03-30 14:29:00,
2013-03-30 07:35:00,36.1,33.2,30.20,SW,233,0.0,0.0,89,0.00,CLR,,0.00,WeatherDisplay:10.37,2013-03-30 14:35:00,
2013-03-30 07:40:00,36.5,33.6,30.20,SSW,211,0.0,0.0,89,0.00,CLR,,0.00,WeatherDisplay:10.37,2013-03-30 14:40:00,
2013-03-30 07:45:00,36.9,33.7,30.19,South,188,0.0,0.0,88,0.00,CLR,,0.00,WeatherDisplay:10.37,2013-03-30 14:45:00,
2013-03-30 07:50:00,37.0,33.8,30.19,South,188,0.0,0.0,88,0.00,CLR,,0.00,WeatherDisplay:10.37,2013-03-30 14:50:00,
2013-03-30 07:55:00,37.5,34.3,30.19,South,188,0.0,0.0,88,0.00,CLR,,0.00,WeatherDisplay:10.37,2013-03-30 14:55:00,
2013-03-30 08:00:00,38.0,34.5,30.19,South,188,0.0,0.0,87,0.00,CLR,,0.00,WeatherDisplay:10.37,2013-03-30 15:00:00,
2013-03-30 08:07:00,38.8,35.0,30.20,South,188,0.0,0.0,86,0.00,CLR,,0.00,WeatherDisplay:10.37,2013-03-30 15:07:00,
2013-03-30 08:13:00,39.3,35.5,30.20,South,188,0.0,0.0,86,0.00,CLR,,0.00,WeatherDisplay:10.37,2013-03-30 15:13:00,
2013-03-30 08:18:00,39.8,35.7,30.19,South,188,0.0,0.0,85,0.00,CLR,,0.00,WeatherDisplay:10.37,2013-03-30 15:18:00,
2013-03-30 08:24:00,40.8,36.3,30.19,South,188,0.0,0.0,84,0.00,CLR,,0.00,WeatherDisplay:10.37,2013-03-30 15:24:00,
2013-03-30 08:29:00,41.5,36.7,30.18,South,188,0.0,0.0,83,0.00,CLR,,0.00,WeatherDisplay:10.37,2013-03-30 15:29:00,
2013-03-30 08:35:00,42.2,37.1,30.18,South,188,0.0,0.0,82,0.00,CLR,,0.00,WeatherDisplay:10.37,2013-03-30 15:35:00,
2013-03-30 08:40:00,42.6,37.2,30.18,South,188,0.0,0.0,81,0.00,CLR,,0.00,WeatherDisplay:10.37,2013-03-30 15:40:00,
2013-03-30 08:45:00,43.3,37.5,30.18,South,188,0.0,0.0,80,0.00,CLR,,0.00,WeatherDisplay:10.37,2013-03-30 15:45:00,
2013-03-30 08:51:00,44.1,37.3,30.18,South,188,0.0,0.0,77,0.00,CLR,,0.00,WeatherDisplay:10.37,2013-03-30 15:51:00,
2013-03-30 08:56:00,44.6,37.8,30.17,South,188,0.0,0.0,77,0.00,CLR,,0.00,WeatherDisplay:10.37,2013-03-30 15:56:00,
2013-03-30 09:02:00,44.8,37.7,30.19,South,188,0.0,0.0,76,0.00,CLR,,0.00,WeatherDisplay:10.37,2013-03-30 16:02:00,
2013-03-30 09:07:00,45.2,38.1,30.19,South,188,0.0,0.0,76,0.00,CLR,,0.00,WeatherDisplay:10.37,2013-03-30 16:07:00,
2013-03-30 09:12:00,45.7,37.9,30.18,South,188,0.0,0.0,74,0.00,CLR,,0.00,WeatherDisplay:10.37,2013-03-30 16:12:00,
2013-03-30 09:17:00,46.0,38.2,30.18,South,188,0.0,0.0,74,0.00,CLR,,0.00,WeatherDisplay:10.37,2013-03-30 16:17:00,
2013-03-30 09:22:00,46.4,38.2,30.18,South,188,0.0,0.0,73,0.00,CLR,,0.00,WeatherDisplay:10.37,2013-03-30 16:22:00,
2013-03-30 09:27:00,46.8,38.6,30.18,SSW,208,0.0,0.0,73,0.00,CLR,,0.00,WeatherDisplay:10.37,2013-03-30 16:27:00,
2013-03-30 09:32:00,47.0,38.1,30.18,SSW,208,0.0,0.0,71,0.00,CLR,,0.00,WeatherDisplay:10.37,2013-03-30 16:32:00,
2013-03-30 09:38:00,47.4,38.5,30.18,SW,219,0.0,0.0,71,0.00,CLR,,0.00,WeatherDisplay:10.37,2013-03-30 16:38:00,
2013-03-30 09:43:00,47.7,38.4,30.17,NW,318,0.0,0.0,70,0.00,CLR,,0.00,WeatherDisplay:10.37,2013-03-30 16:43:00,
2013-03-30 09:48:00,48.5,39.2,30.17,NW,318,0.0,0.0,70,0.00,CLR,,0.00,WeatherDisplay:10.37,2013-03-30 16:48:00,
2013-03-30 09:53:00,49.1,39.0,30.17,NW,318,0.0,0.0,68,0.00,CLR,,0.00,WeatherDisplay:10.37,2013-03-30 16:53:00,
2013-03-30 09:59:00,49.5,39.0,30.17,NW,318,0.0,0.0,67,0.00,CLR,,0.00,WeatherDisplay:10.37,2013-03-30 16:59:00,
2013-03-30 10:04:00,49.6,38.3,30.17,NW,318,0.0,0.0,65,0.00,CLR,,0.00,WeatherDisplay:10.37,2013-03-30 17:04:00,
2013-03-30 10:10:00,49.8,38.9,30.17,NW,317,0.0,0.0,66,0.00,CLR,,0.00,WeatherDisplay:10.37,2013-03-30 17:10:00,
2013-03-30 10:15:00,50.1,39.2,30.17,NW,313,0.0,0.0,66,0.00,CLR,,0.00,WeatherDisplay:10.37,2013-03-30 17:15:00,
2013-03-30 10:20:00,50.4,39.1,30.17,WNW,299,0.0,0.0,65,0.00,CLR,,0.00,WeatherDisplay:10.37,2013-03-30 17:20:00,
2013-03-30 10:25:00,51.0,40.0,30.17,NW,311,0.0,0.0,66,0.00,CLR,,0.00,WeatherDisplay:10.37,2013-03-30 17:25:00,
2013-03-30 10:30:00,51.1,39.3,30.17,NW,308,0.0,0.0,64,0.00,CLR,,0.00,WeatherDisplay:10.37,2013-03-30 17:30:00,
2013-03-30 10:35:00,51.6,40.2,30.17,NW,308,0.0,0.0,65,0.00,CLR,,0.00,WeatherDisplay:10.37,2013-03-30 17:35:00,
2013-03-30 10:40:00,52.2,40.0,30.16,NW,309,0.0,0.0,63,0.00,CLR,,0.00,WeatherDisplay:10.37,2013-03-30 17:40:00,
2013-03-30 10:45:00,52.9,39.4,30.16,NW,316,0.0,0.0,60,0.00,CLR,,0.00,WeatherDisplay:10.37,2013-03-30 17:45:00,
2013-03-30 10:50:00,53.3,40.2,30.16,NW,318,0.0,0.0,61,0.00,CLR,,0.00,WeatherDisplay:10.37,2013-03-30 17:50:00,
2013-03-30 10:55:00,53.6,39.6,30.15,NW,320,0.0,0.0,59,0.00,CLR,,0.00,WeatherDisplay:10.37,2013-03-30 17:55:00,
2013-03-30 11:02:00,54.2,40.6,30.16,WNW,299,0.0,0.0,60,0.00,CLR,,0.00,WeatherDisplay:10.37,2013-03-30 18:02:00,
2013-03-30 11:07:00,54.5,40.5,30.15,WNW,299,0.0,0.0,59,0.00,CLR,,0.00,WeatherDisplay:10.37,2013-03-30 18:07:00,
2013-03-30 11:12:00,55.4,40.0,30.15,WNW,298,0.0,0.0,56,0.00,CLR,,0.00,WeatherDisplay:10.37,2013-03-30 18:12:00,
2013-03-30 11:17:00,56.2,40.7,30.15,WNW,298,0.0,0.0,56,0.00,CLR,,0.00,WeatherDisplay:10.37,2013-03-30 18:17:00,
2013-03-30 11:22:00,56.3,40.3,30.14,WNW,296,0.0,0.0,55,0.00,CLR,,0.00,WeatherDisplay:10.37,2013-03-30 18:22:00,
2013-03-30 11:27:00,56.6,40.6,30.14,WNW,298,0.0,0.0,55,0.00,CLR,,0.00,WeatherDisplay:10.37,2013-03-30 18:27:00,
2013-03-30 11:32:00,57.0,40.5,30.14,NW,305,0.0,0.0,54,0.00,CLR,,0.00,WeatherDisplay:10.37,2013-03-30 18:32:00,
2013-03-30 11:37:00,58.0,40.0,30.13,NE,42,0.0,0.0,51,0.00,CLR,,0.00,WeatherDisplay:10.37,2013-03-30 18:37:00,
2013-03-30 11:42:00,58.4,39.8,30.13,NE,40,0.0,0.0,50,0.00,CLR,,0.00,WeatherDisplay:10.37,2013-03-30 18:42:00,
2013-03-30 11:47:00,59.3,40.1,30.12,NE,40,0.0,0.0,49,0.00,CLR,,0.00,WeatherDisplay:10.37,2013-03-30 18:47:00,
2013-03-30 11:52:00,60.1,39.8,30.12,NNE,16,0.0,0.0,47,0.00,CLR,,0.00,WeatherDisplay:10.37,2013-03-30 18:52:00,
2013-03-30 11:57:00,59.6,39.9,30.11,North,354,0.0,0.0,48,0.00,CLR,,0.00,WeatherDisplay:10.37,2013-03-30 18:57:00,
2013-03-30 12:02:00,59.9,40.7,30.11,NW,311,0.0,0.0,49,0.00,CLR,,0.00,WeatherDisplay:10.37,2013-03-30 19:02:00,
2013-03-30 12:07:00,59.9,39.6,30.11,NW,311,0.0,0.0,47,0.00,CLR,,0.00,WeatherDisplay:10.37,2013-03-30 19:07:00,
2013-03-30 12:12:00,60.1,39.8,30.11,NW,315,0.0,0.0,47,0.00,CLR,,0.00,WeatherDisplay:10.37,2013-03-30 19:12:00,
2013-03-30 12:17:00,60.5,40.2,30.11,NNE,27,0.0,0.0,47,0.00,CLR,,0.00,WeatherDisplay:10.37,2013-03-30 19:17:00,
2013-03-30 12:22:00,60.5,39.6,30.10,NW,325,0.0,0.0,46,0.00,CLR,,0.00,WeatherDisplay:10.37,2013-03-30 19:22:00,
2013-03-30 12:28:00,60.9,40.0,30.10,NW,306,0.0,0.0,46,0.00,CLR,,0.00,WeatherDisplay:10.37,2013-03-30 19:28:00,
2013-03-30 12:33:00,61.0,39.5,30.10,WNW,302,0.0,0.0,45,0.00,CLR,,0.00,WeatherDisplay:10.37,2013-03-30 19:33:00,
2013-03-30 12:38:00,61.6,40.0,30.08,North,357,0.0,0.0,45,0.00,CLR,,0.00,WeatherDisplay:10.37,2013-03-30 19:38:00,
2013-03-30 12:43:00,61.8,40.2,30.08,NW,311,0.0,0.0,45,0.00,CLR,,0.00,WeatherDisplay:10.37,2013-03-30 19:43:00,
2013-03-30 12:48:00,62.4,40.2,30.08,NW,311,0.0,0.0,44,0.00,CLR,,0.00,WeatherDisplay:10.37,2013-03-30 19:48:00,
2013-03-30 12:53:00,62.7,40.5,30.08,WNW,294,0.0,0.0,44,0.00,CLR,,0.00,WeatherDisplay:10.37,2013-03-30 19:53:00,
2013-03-30 12:59:00,62.7,41.0,30.07,WNW,302,0.0,0.0,45,0.00,CLR,,0.00,WeatherDisplay:10.37,2013-03-30 19:59:00,
2013-03-30 13:04:00,63.2,39.1,30.07,NNW,328,0.0,0.0,41,0.00,CLR,,0.00,WeatherDisplay:10.37,2013-03-30 20:04:00,
2013-03-30 13:09:00,63.7,39.5,30.07,North,0,0.0,0.0,41,0.00,CLR,,0.00,WeatherDisplay:10.37,2013-03-30 20:09:00,
2013-03-30 13:14:00,64.0,41.0,30.07,North,359,0.0,0.0,43,0.00,CLR,,0.00,WeatherDisplay:10.37,2013-03-30 20:14:00,
2013-03-30 13:19:00,64.2,38.0,30.07,WNW,299,0.0,0.0,38,0.00,CLR,,0.00,WeatherDisplay:10.37,2013-03-30 20:19:00,
2013-03-30 13:24:00,64.7,39.2,30.06,NW,315,0.0,0.0,39,0.00,CLR,,0.00,WeatherDisplay:10.37,2013-03-30 20:24:00,
2013-03-30 13:29:00,65.0,38.8,30.06,NNW,346,0.0,0.0,38,0.00,CLR,,0.00,WeatherDisplay:10.37,2013-03-30 20:29:00,
2013-03-30 13:34:00,65.2,39.6,30.05,WNW,292,0.0,0.0,39,0.00,CLR,,0.00,WeatherDisplay:10.37,2013-03-30 20:34:00,
2013-03-30 13:39:00,65.0,38.8,30.05,NW,306,0.0,0.0,38,0.00,CLR,,0.00,WeatherDisplay:10.37,2013-03-30 20:39:00,
2013-03-30 13:44:00,65.2,38.3,30.05,WNW,302,0.0,0.0,37,0.00,CLR,,0.00,WeatherDisplay:10.37,2013-03-30 20:44:00,
2013-03-30 13:49:00,66.1,38.4,30.04,NNW,329,0.0,0.0,36,0.00,CLR,,0.00,WeatherDisplay:10.37,2013-03-30 20:49:00,
2013-03-30 13:54:00,66.3,39.9,30.04,WNW,299,0.0,0.0,38,0.00,CLR,,0.00,WeatherDisplay:10.37,2013-03-30 20:54:00,
2013-03-30 13:59:00,66.0,37.5,30.04,NW,312,1.1,0.0,35,0.00,CLR,,0.00,WeatherDisplay:10.37,2013-03-30 20:59:00,
2013-03-30 14:04:00,66.3,39.2,30.03,NNW,330,0.0,0.0,37,0.00,CLR,,0.00,WeatherDisplay:10.37,2013-03-30 21:04:00,
2013-03-30 14:09:00,66.3,35.5,30.03,NNW,337,0.0,0.0,32,0.00,CLR,,0.00,WeatherDisplay:10.37,2013-03-30 21:09:00,
2013-03-30 14:14:00,66.9,35.3,30.03,NE,41,0.0,0.0,31,0.00,CLR,,0.00,WeatherDisplay:10.37,2013-03-30 21:14:00,
2013-03-30 14:19:00,67.1,35.4,30.03,WNW,285,0.0,0.0,31,0.00,CLR,,0.00,WeatherDisplay:10.37,2013-03-30 21:19:00,
2013-03-30 14:24:00,67.4,38.8,30.03,North,359,0.0,0.0,35,0.00,CLR,,0.00,WeatherDisplay:10.37,2013-03-30 21:24:00,
2013-03-30 14:29:00,67.6,35.9,30.02,North,3,0.0,0.0,31,0.00,CLR,,0.00,WeatherDisplay:10.37,2013-03-30 21:29:00,
2013-03-30 14:34:00,67.4,35.7,30.02,WNW,295,1.0,0.0,31,0.00,CLR,,0.00,WeatherDisplay:10.37,2013-03-30 21:34:00,
2013-03-30 14:39:00,67.3,38.0,30.02,NE,41,0.0,0.0,34,0.00,CLR,,0.00,WeatherDisplay:10.37,2013-03-30 21:39:00,
2013-03-30 14:44:00,67.3,35.6,30.01,WNW,298,0.0,0.0,31,0.00,CLR,,0.00,WeatherDisplay:10.37,2013-03-30 21:44:00,
2013-03-30 14:49:00,67.4,34.9,30.02,NW,318,0.0,0.0,30,0.00,CLR,,0.00,WeatherDisplay:10.37,2013-03-30 21:49:00,
2013-03-30 14:54:00,67.6,34.2,30.01,NW,306,0.0,0.0,29,0.00,CLR,,0.00,WeatherDisplay:10.37,2013-03-30 21:54:00,
2013-03-30 14:59:00,67.6,34.2,30.00,NW,323,0.0,0.0,29,0.00,CLR,,0.00,WeatherDisplay:10.37,2013-03-30 21:59:00,
2013-03-30 15:04:00,67.8,33.5,30.01,WNW,299,0.0,0.0,28,0.00,CLR,,0.00,WeatherDisplay:10.37,2013-03-30 22:04:00,
2013-03-30 15:09:00,67.8,33.5,30.01,North,357,0.0,0.0,28,0.00,CLR,,0.00,WeatherDisplay:10.37,2013-03-30 22:09:00,
2013-03-30 15:14:00,68.1,33.7,30.00,NW,326,0.0,0.0,28,0.00,CLR,,0.00,WeatherDisplay:10.37,2013-03-30 22:14:00,
2013-03-30 15:19:00,67.8,33.5,30.00,NW,322,0.0,0.0,28,0.00,CLR,,0.00,WeatherDisplay:10.37,2013-03-30 22:19:00,
2013-03-30 15:24:00,68.1,33.7,30.00,NE,52,0.0,0.0,28,0.00,CLR,,0.00,WeatherDisplay:10.37,2013-03-30 22:24:00,
2013-03-30 15:29:00,68.8,35.2,30.00,NW,323,0.0,0.0,29,0.00,CLR,,0.00,WeatherDisplay:10.37,2013-03-30 22:29:00,
2013-03-30 15:34:00,68.3,33.9,30.00,WNW,302,0.0,0.0,28,0.00,CLR,,0.00,WeatherDisplay:10.37,2013-03-30 22:34:00,
2013-03-30 15:39:00,68.3,35.6,29.99,NW,304,3.5,0.0,30,0.00,CLR,,0.00,WeatherDisplay:10.37,2013-03-30 22:39:00,
2013-03-30 15:44:00,67.9,33.6,29.99,NW,323,0.0,0.0,28,0.00,CLR,,0.00,WeatherDisplay:10.37,2013-03-30 22:44:00,
2013-03-30 15:49:00,68.3,36.5,29.99,NNW,336,2.3,0.0,31,0.00,CLR,,0.00,WeatherDisplay:10.37,2013-03-30 22:49:00,
2013-03-30 15:54:00,68.4,34.0,29.99,NW,323,11.5,0.0,28,0.00,CLR,,0.00,WeatherDisplay:10.37,2013-03-30 22:54:00,
2013-03-30 15:59:00,68.4,34.0,29.99,NNW,330,0.0,0.0,28,0.00,CLR,,0.00,WeatherDisplay:10.37,2013-03-30 22:59:00,
2013-03-30 16:04:00,68.1,37.1,29.98,WNW,298,3.5,3.5,32,0.00,CLR,,0.00,WeatherDisplay:10.37,2013-03-30 23:04:00,
2013-03-30 16:09:00,68.3,37.3,29.98,West,274,12.0,12.0,32,0.00,CLR,,0.00,WeatherDisplay:10.37,2013-03-30 23:09:00,
2013-03-30 16:14:00,68.1,37.1,29.98,NW,313,2.3,0.0,32,0.00,CLR,,0.00,WeatherDisplay:10.37,2013-03-30 23:14:00,
2013-03-30 16:19:00,67.8,36.8,29.98,WNW,289,1.1,1.1,32,0.00,CLR,,0.00,WeatherDisplay:10.37,2013-03-30 23:19:00,
2013-03-30 16:24:00,67.9,37.7,29.98,NW,313,3.5,0.0,33,0.00,CLR,,0.00,WeatherDisplay:10.37,2013-03-30 23:24:00,
2013-03-30 16:29:00,67.8,36.0,29.98,NW,309,11.5,11.5,31,0.00,CLR,,0.00,WeatherDisplay:10.37,2013-03-30 23:29:00,
2013-03-30 16:34:00,67.4,37.3,29.98,WNW,292,11.5,11.5,33,0.00,CLR,,0.00,WeatherDisplay:10.37,2013-03-30 23:34:00,
2013-03-30 16:39:00,67.8,39.9,29.98,WNW,295,2.3,0.0,36,0.00,CLR,,0.00,WeatherDisplay:10.37,2013-03-30 23:39:00,
2013-03-30 16:44:00,67.8,36.8,29.97,NW,312,3.5,3.5,32,0.00,CLR,,0.00,WeatherDisplay:10.37,2013-03-30 23:44:00,
2013-03-30 16:49:00,67.8,38.4,29.98,NNW,340,3.5,0.0,34,0.00,CLR,,0.00,WeatherDisplay:10.37,2013-03-30 23:49:00,
2013-03-30 16:54:00,67.8,37.6,29.97,WNW,295,3.5,3.5,33,0.00,CLR,,0.00,WeatherDisplay:10.37,2013-03-30 23:54:00,
2013-03-30 16:59:00,67.4,38.0,29.98,WNW,287,2.3,2.3,34,0.00,CLR,,0.00,WeatherDisplay:10.37,2013-03-30 23:59:00,
2013-03-30 17:04:00,67.1,36.2,29.98,West,274,11.5,11.5,32,0.00,CLR,,0.00,WeatherDisplay:10.37,2013-03-31 00:04:00,
2013-03-30 17:09:00,67.1,37.8,29.98,NNW,332,3.5,0.0,34,0.00,CLR,,0.00,WeatherDisplay:10.37,2013-03-31 00:09:00,
2013-03-30 17:14:00,66.9,39.1,29.98,WNW,295,3.5,3.5,36,0.00,CLR,,0.00,WeatherDisplay:10.37,2013-03-31 00:14:00,
2013-03-30 17:19:00,67.1,39.2,29.98,WNW,302,2.3,2.3,36,0.00,CLR,,0.00,WeatherDisplay:10.37,2013-03-31 00:19:00,
2013-03-30 17:24:00,67.1,38.5,29.98,WNW,282,1.1,1.1,35,0.00,CLR,,0.00,WeatherDisplay:10.37,2013-03-31 00:24:00,
2013-03-30 17:29:00,66.3,38.5,29.98,West,274,2.3,2.3,36,0.00,CLR,,0.00,WeatherDisplay:10.37,2013-03-31 00:29:00,
2013-03-30 17:34:00,66.1,39.1,29.98,WNW,287,2.3,0.0,37,0.00,CLR,,0.00,WeatherDisplay:10.37,2013-03-31 00:34:00,
2013-03-30 17:39:00,66.3,38.5,29.98,WNW,288,3.5,3.5,36,0.00,CLR,,0.00,WeatherDisplay:10.37,2013-03-31 00:39:00,
2013-03-30 17:44:00,66.1,39.1,29.98,West,281,12.0,12.0,37,0.00,CLR,,0.00,WeatherDisplay:10.37,2013-03-31 00:44:00,
2013-03-30 17:49:00,66.0,39.0,29.98,WNW,287,11.5,11.5,37,0.00,CLR,,0.00,WeatherDisplay:10.37,2013-03-31 00:49:00,
2013-03-30 17:54:00,65.8,38.8,29.98,WNW,294,12.0,12.0,37,0.00,CLR,,0.00,WeatherDisplay:10.37,2013-03-31 00:54:00,
2013-03-30 17:59:00,65.6,39.3,29.98,NW,304,12.7,12.7,38,0.00,CLR,,0.00,WeatherDisplay:10.37,2013-03-31 00:59:00,
2013-03-30 18:04:00,65.5,37.8,29.98,WNW,287,12.0,12.0,36,0.00,CLR,,0.00,WeatherDisplay:10.37,2013-03-31 01:04:00,
2013-03-30 18:09:00,65.3,38.3,29.99,WNW,294,4.6,4.6,37,0.00,CLR,,0.00,WeatherDisplay:10.37,2013-03-31 01:09:00,
2013-03-30 18:14:00,65.3,39.0,29.99,WNW,291,3.5,3.5,38,0.00,CLR,,0.00,WeatherDisplay:10.37,2013-03-31 01:14:00,
2013-03-30 18:19:00,64.8,38.6,29.99,WNW,284,2.3,2.3,38,0.00,CLR,,0.00,WeatherDisplay:10.37,2013-03-31 01:19:00,
2013-03-30 18:24:00,64.7,39.2,29.99,WNW,299,3.5,0.0,39,0.00,CLR,,0.00,WeatherDisplay:10.37,2013-03-31 01:24:00,
2013-03-30 18:29:00,64.5,39.0,29.99,NW,325,3.5,3.5,39,0.00,CLR,,0.00,WeatherDisplay:10.37,2013-03-31 01:29:00,
2013-03-30 18:34:00,64.2,39.4,29.99,WNW,299,1.1,1.1,40,0.00,CLR,,0.00,WeatherDisplay:10.37,2013-03-31 01:34:00,
2013-03-30 18:39:00,63.9,39.7,29.99,WNW,292,2.3,2.3,41,0.00,CLR,,0.00,WeatherDisplay:10.37,2013-03-31 01:39:00,
2013-03-30 18:44:00,63.5,39.4,29.99,WNW,291,3.5,3.5,41,0.00,CLR,,0.00,WeatherDisplay:10.37,2013-03-31 01:44:00,
2013-03-30 18:49:00,63.2,39.1,30.00,WNW,295,0.0,0.0,41,0.00,CLR,,0.00,WeatherDisplay:10.37,2013-03-31 01:49:00,
2013-03-30 18:54:00,63.1,39.6,30.00,WNW,292,1.1,1.1,42,0.00,CLR,,0.00,WeatherDisplay:10.37,2013-03-31 01:54:00,
2013-03-30 18:59:00,62.7,38.6,30.00,WNW,291,3.5,3.5,41,0.00,CLR,,0.00,WeatherDisplay:10.37,2013-03-31 01:59:00,
2013-03-30 19:04:00,62.4,39.0,29.98,WNW,284,0.0,0.0,42,0.00,CLR,,0.00,WeatherDisplay:10.37,2013-03-31 02:04:00,
2013-03-30 19:09:00,62.1,39.3,29.98,WNW,285,1.1,0.0,43,0.00,CLR,,0.00,WeatherDisplay:10.37,2013-03-31 02:09:00,
2013-03-30 19:14:00,61.8,39.6,29.98,WNW,295,0.0,0.0,44,0.00,CLR,,0.00,WeatherDisplay:10.37,2013-03-31 02:14:00,
2013-03-30 19:19:00,61.6,39.5,29.98,WNW,296,0.0,0.0,44,0.00,CLR,,0.00,WeatherDisplay:10.37,2013-03-31 02:19:00,
2013-03-30 19:24:00,61.2,39.7,29.99,WNW,292,0.0,0.0,45,0.00,CLR,,0.00,WeatherDisplay:10.37,2013-03-31 02:24:00,
2013-03-30 19:29:00,60.9,40.0,29.99,WNW,292,0.0,0.0,46,0.00,CLR,,0.00,WeatherDisplay:10.37,2013-03-31 02:29:00,
2013-03-30 19:34:00,60.5,39.6,29.99,WNW,296,0.0,0.0,46,0.00,CLR,,0.00,WeatherDisplay:10.37,2013-03-31 02:34:00,
2013-03-30 19:39:00,60.2,39.9,29.99,WNW,291,0.0,0.0,47,0.00,CLR,,0.00,WeatherDisplay:10.37,2013-03-31 02:39:00,
2013-03-30 19:44:00,59.9,39.6,29.99,WNW,285,0.0,0.0,47,0.00,CLR,,0.00,WeatherDisplay:10.37,2013-03-31 02:44:00,
2013-03-30 19:49:00,59.6,39.9,29.99,WNW,288,0.0,0.0,48,0.00,CLR,,0.00,WeatherDisplay:10.37,2013-03-31 02:49:00,
2013-03-30 19:54:00,59.3,40.1,30.00,WNW,288,0.0,0.0,49,0.00,CLR,,0.00,WeatherDisplay:10.37,2013-03-31 02:54:00,
2013-03-30 19:59:00,59.0,40.4,30.00,WNW,288,0.0,0.0,50,0.00,CLR,,0.00,WeatherDisplay:10.37,2013-03-31 02:59:00,
2013-03-30 20:04:00,58.6,40.0,29.97,WNW,288,0.0,0.0,50,0.00,CLR,,0.00,WeatherDisplay:10.37,2013-03-31 03:04:00,
2013-03-30 20:09:00,58.3,39.7,29.98,WNW,288,0.0,0.0,50,0.00,CLR,,0.00,WeatherDisplay:10.37,2013-03-31 03:09:00,
2013-03-30 20:14:00,58.0,40.0,29.98,WNW,288,0.0,0.0,51,0.00,CLR,,0.00,WeatherDisplay:10.37,2013-03-31 03:14:00,
2013-03-30 20:19:00,57.8,39.8,29.99,WNW,288,0.0,0.0,51,0.00,CLR,,0.00,WeatherDisplay:10.37,2013-03-31 03:19:00,
2013-03-30 20:24:00,57.5,40.0,29.99,WNW,288,0.0,0.0,52,0.00,CLR,,0.00,WeatherDisplay:10.37,2013-03-31 03:24:00,
2013-03-30 20:29:00,57.2,39.7,29.99,WNW,288,0.0,0.0,52,0.00,CLR,,0.00,WeatherDisplay:10.37,2013-03-31 03:29:00,
2013-03-30 20:34:00,56.9,39.9,29.99,WNW,288,0.0,0.0,53,0.00,CLR,,0.00,WeatherDisplay:10.37,2013-03-31 03:34:00,
2013-03-30 20:39:00,56.6,39.7,29.99,WNW,288,0.0,0.0,53,0.00,CLR,,0.00,WeatherDisplay:10.37,2013-03-31 03:39:00,
2013-03-30 20:44:00,56.3,39.4,30.00,WNW,288,0.0,0.0,53,0.00,CLR,,0.00,WeatherDisplay:10.37,2013-03-31 03:44:00,
2013-03-30 20:49:00,56.0,39.6,30.00,WNW,288,0.0,0.0,54,0.00,CLR,,0.00,WeatherDisplay:10.37,2013-03-31 03:49:00,
2013-03-30 20:54:00,55.9,39.5,30.00,WNW,285,0.0,0.0,54,0.00,CLR,,0.00,WeatherDisplay:10.37,2013-03-31 03:54:00,
2013-03-30 20:59:00,55.7,39.3,30.00,West,280,0.0,0.0,54,0.00,CLR,,0.00,WeatherDisplay:10.37,2013-03-31 03:59:00,
2013-03-30 21:00:00,55.7,39.3,30.00,WNW,283,0.0,0.0,54,0.00,CLR,,0.00,WeatherDisplay:10.37,2013-03-31 04:00:00,
2013-03-30 21:02:00,55.7,39.3,29.98,West,278,0.0,0.0,54,0.00,CLR,,0.00,WeatherDisplay:10.37,2013-03-31 04:02:00,
2013-03-30 21:05:00,55.7,39.3,29.98,West,279,0.0,0.0,54,0.00,CLR,,0.00,WeatherDisplay:10.37,2013-03-31 04:05:00,
2013-03-30 21:10:00,55.6,39.7,29.98,West,278,0.0,0.0,55,0.00,CLR,,0.00,WeatherDisplay:10.37,2013-03-31 04:10:00,
2013-03-30 21:15:00,55.4,39.5,29.98,West,277,0.0,0.0,55,0.00,CLR,,0.00,WeatherDisplay:10.37,2013-03-31 04:15:00,
2013-03-30 21:20:00,55.3,39.9,29.98,West,278,0.0,0.0,56,0.00,CLR,,0.00,WeatherDisplay:10.37,2013-03-31 04:20:00,
2013-03-30 21:25:00,55.1,39.7,29.99,West,277,0.0,0.0,56,0.00,CLR,,0.00,WeatherDisplay:10.37,2013-03-31 04:25:00,
2013-03-30 21:30:00,55.0,39.6,29.99,West,277,0.0,0.0,56,0.00,CLR,,0.00,WeatherDisplay:10.37,2013-03-31 04:30:00,
2013-03-30 21:35:00,54.8,39.4,29.99,West,277,0.0,0.0,56,0.00,CLR,,0.00,WeatherDisplay:10.37,2013-03-31 04:35:00,
2013-03-30 21:40:00,54.7,39.3,29.99,West,275,0.0,0.0,56,0.00,CLR,,0.00,WeatherDisplay:10.37,2013-03-31 04:40:00,
2013-03-30 21:45:00,54.7,39.3,29.99,West,275,0.0,0.0,56,0.00,CLR,,0.00,WeatherDisplay:10.37,2013-03-31 04:45:00,
2013-03-30 21:50:00,54.5,39.1,29.99,West,275,0.0,0.0,56,0.00,CLR,,0.00,WeatherDisplay:10.37,2013-03-31 04:50:00,
2013-03-30 21:55:00,54.2,39.3,29.99,West,275,0.0,0.0,57,0.00,CLR,,0.00,WeatherDisplay:10.37,2013-03-31 04:55:00,
2013-03-30 22:00:00,54.1,39.6,29.99,West,275,0.0,0.0,58,0.00,CLR,,0.00,WeatherDisplay:10.37,2013-03-31 05:00:00,
2013-03-30 22:05:00,53.8,39.4,29.97,West,275,0.0,0.0,58,0.00,CLR,,0.00,WeatherDisplay:10.37,2013-03-31 05:05:00,
2013-03-30 22:10:00,53.6,39.6,29.97,West,275,0.0,0.0,59,0.00,CLR,,0.00,WeatherDisplay:10.37,2013-03-31 05:10:00,
2013-03-30 22:15:00,53.5,39.5,29.97,West,275,0.0,0.0,59,0.00,CLR,,0.00,WeatherDisplay:10.37,2013-03-31 05:15:00,
2013-03-30 22:20:00,53.3,39.3,29.98,West,275,0.0,0.0,59,0.00,CLR,,0.00,WeatherDisplay:10.37,2013-03-31 05:20:00,
2013-03-30 22:25:00,53.2,39.7,29.98,West,275,0.0,0.0,60,0.00,CLR,,0.00,WeatherDisplay:10.37,2013-03-31 05:25:00,
2013-03-30 22:30:00,53.1,39.6,29.98,West,275,0.0,0.0,60,0.00,CLR,,0.00,WeatherDisplay:10.37,2013-03-31 05:30:00,
2013-03-30 22:35:00,52.8,39.3,29.98,West,275,0.0,0.0,60,0.00,CLR,,0.00,WeatherDisplay:10.37,2013-03-31 05:35:00,
2013-03-30 22:40:00,52.8,39.3,29.98,West,275,0.0,0.0,60,0.00,CLR,,0.00,WeatherDisplay:10.37,2013-03-31 05:40:00,
2013-03-30 22:45:00,52.6,39.5,29.98,West,275,0.0,0.0,61,0.00,CLR,,0.00,WeatherDisplay:10.37,2013-03-31 05:45:00,
2013-03-30 22:50:00,52.6,39.5,29.98,West,280,0.0,0.0,61,0.00,CLR,,0.00,WeatherDisplay:10.37,2013-03-31 05:50:00,
2013-03-30 22:55:00,52.5,39.4,29.98,West,280,0.0,0.0,61,0.00,CLR,,0.00,WeatherDisplay:10.37,2013-03-31 05:55:00,
2013-03-30 23:00:00,52.3,39.2,29.98,West,278,0.0,0.0,61,0.00,CLR,,0.00,WeatherDisplay:10.37,2013-03-31 06:00:00,
2013-03-30 23:05:00,52.2,39.6,29.95,West,277,0.0,0.0,62,0.00,CLR,,0.00,WeatherDisplay:10.37,2013-03-31 06:05:00,
2013-03-30 23:10:00,52.0,39.4,29.95,West,278,0.0,0.0,62,0.00,CLR,,0.00,WeatherDisplay:10.37,2013-03-31 06:10:00,
2013-03-30 23:15:00,51.9,39.3,29.95,West,277,0.0,0.0,62,0.00,CLR,,0.00,WeatherDisplay:10.37,2013-03-31 06:15:00,
2013-03-30 23:20:00,51.7,39.1,29.95,West,277,0.0,0.0,62,0.00,CLR,,0.00,WeatherDisplay:10.37,2013-03-31 06:20:00,
2013-03-30 23:25:00,51.4,39.2,29.95,West,277,0.0,0.0,63,0.00,CLR,,0.00,WeatherDisplay:10.37,2013-03-31 06:25:00,
2013-03-30 23:30:00,51.4,39.2,29.96,West,277,0.0,0.0,63,0.00,CLR,,0.00,WeatherDisplay:10.37,2013-03-31 06:30:00,
2013-03-30 23:35:00,51.3,39.1,29.96,West,277,0.0,0.0,63,0.00,CLR,,0.00,WeatherDisplay:10.37,2013-03-31 06:35:00,
2013-03-30 23:40:00,51.1,38.9,29.96,West,277,0.0,0.0,63,0.00,CLR,,0.00,WeatherDisplay:10.37,2013-03-31 06:40:00,
2013-03-30 23:45:00,51.0,38.8,29.96,West,277,0.0,0.0,63,0.00,CLR,,0.00,WeatherDisplay:10.37,2013-03-31 06:45:00,
2013-03-30 23:50:00,50.8,39.1,29.96,West,277,0.0,0.0,64,0.00,CLR,,0.00,WeatherDisplay:10.37,2013-03-31 06:50:00,
2013-03-30 23:55:00,50.7,39.0,29.96,West,277,0.0,0.0,64,0.00,CLR,,0.00,WeatherDisplay:10.37,2013-03-31 06:55:00,